Time,TemperatureF,DewpointF,PressureIn,WindDirection,WindDirectionDegrees,WindSpeedMPH,WindSpeedGustMPH,Humidity,HourlyPrecipIn,Conditions,Clouds,dailyrainin,SoftwareType,DateUTC
2013-07-28 00:02:00,68.0,66.0,30.00,North,-999,1.0,2.0,93,-99.99,,,-99.99,,2013-07-28 04:02:00,
2013-07-28 00:32:00,68.0,66.0,30.00,WNW,289,1.0,2.0,93,-99.99,,,-99.99,,2013-07-28 04:32:00,
2013-07-28 00:43:00,68.0,66.0,30.00,SW,223,1.0,1.0,93,-99.99,,,-99.99,,2013-07-28 04:43:00,
2013-07-28 01:02:00,68.0,66.0,30.00,NW,320,0.0,1.0,93,-99.99,,,-99.99,,2013-07-28 05:02:00,
2013-07-28 01:32:00,69.0,67.0,29.99,South,174,1.0,2.0,93,-99.99,,,-99.99,,2013-07-28 05:32:00,
2013-07-28 01:43:00,69.0,66.0,29.99,South,172,2.0,4.0,93,-99.99,,,-99.99,,2013-07-28 05:43:00,
2013-07-28 02:02:00,69.0,67.0,29.99,South,171,1.0,1.0,93,-99.99,,,-99.99,,2013-07-28 06:02:00,
2013-07-28 02:32:00,69.0,67.0,29.98,South,183,1.0,2.0,93,-99.99,,,-99.99,,2013-07-28 06:32:00,
2013-07-28 02:43:00,69.0,67.0,29.97,SSW,197,1.0,2.0,92,-99.99,,,-99.99,,2013-07-28 06:43:00,
2013-07-28 03:02:00,69.0,67.0,29.98,North,-999,1.0,2.0,93,-99.99,,,-99.99,,2013-07-28 07:02:00,
2013-07-28 03:32:00,69.0,67.0,29.97,North,-999,3.0,5.0,92,-99.99,,,-99.99,,2013-07-28 07:32:00,
2013-07-28 03:43:00,69.0,67.0,29.98,South,187,3.0,5.0,92,-99.99,,,-99.99,,2013-07-28 07:43:00,
2013-07-28 03:53:00,69.0,67.0,29.98,South,187,3.0,5.0,92,-99.99,,,-99.99,,2013-07-28 07:53:00,
2013-07-28 04:02:00,69.0,67.0,-100.00,South,191,3.0,7.0,92,-99.99,,,-99.99,,2013-07-28 08:02:00,
2013-07-28 04:33:00,69.0,66.0,29.98,WSW,248,3.0,7.0,90,-99.99,,,-99.99,,2013-07-28 08:33:00,
2013-07-28 04:43:00,69.0,67.0,29.98,South,179,2.0,4.0,90,-99.99,,,-99.99,,2013-07-28 08:43:00,
2013-07-28 04:53:00,69.0,67.0,29.98,South,179,2.0,4.0,90,-99.99,,,-99.99,,2013-07-28 08:53:00,
2013-07-28 05:02:00,69.0,66.0,29.98,SSE,157,1.0,2.0,91,-99.99,,,-99.99,,2013-07-28 09:02:00,
2013-07-28 05:32:00,70.0,67.0,29.98,SSW,207,2.0,5.0,91,-99.99,,,-99.99,,2013-07-28 09:32:00,
2013-07-28 05:43:00,70.0,67.0,29.99,West,271,1.0,4.0,91,-99.99,,,-99.99,,2013-07-28 09:43:00,
2013-07-28 06:02:00,70.0,67.0,29.99,WSW,250,3.0,7.0,91,-99.99,,,-99.99,,2013-07-28 10:02:00,
2013-07-28 06:33:00,70.0,67.0,29.99,WSW,248,1.0,3.0,91,-99.99,,,-99.99,,2013-07-28 10:33:00,
2013-07-28 06:42:00,70.0,67.0,29.99,SE,142,2.0,4.0,91,-99.99,,,-99.99,,2013-07-28 10:42:00,
2013-07-28 07:02:00,70.0,67.0,29.99,NNE,31,1.0,1.0,91,-99.99,,,-99.99,,2013-07-28 11:02:00,
2013-07-28 07:22:00,69.0,67.0,29.99,NNE,30,1.0,2.0,92,-99.99,,,-99.99,,2013-07-28 11:22:00,
2013-07-28 07:33:00,69.0,67.0,29.99,NNE,30,1.0,2.0,92,-99.99,,,-99.99,,2013-07-28 11:33:00,
2013-07-28 07:43:00,69.0,67.0,30.00,SW,234,1.0,3.0,92,-99.99,,,-99.99,,2013-07-28 11:43:00,
2013-07-28 07:54:00,69.0,67.0,30.00,SW,234,1.0,3.0,92,-99.99,,,-99.99,,2013-07-28 11:54:00,
2013-07-28 08:03:00,70.0,68.0,30.00,South,183,1.0,3.0,91,-99.99,,,-99.99,,2013-07-28 12:03:00,
2013-07-28 08:22:00,71.0,68.0,30.00,SSW,201,2.0,4.0,89,-99.99,,,-99.99,,2013-07-28 12:22:00,
2013-07-28 08:33:00,71.0,68.0,30.00,SSW,201,2.0,4.0,89,-99.99,,,-99.99,,2013-07-28 12:33:00,
2013-07-28 08:43:00,71.0,68.0,30.00,NW,323,2.0,3.0,89,-99.99,,,-99.99,,2013-07-28 12:43:00,
2013-07-28 09:02:00,72.0,69.0,30.00,NW,317,1.0,4.0,89,-99.99,,,-99.99,,2013-07-28 13:02:00,
2013-07-28 09:32:00,73.0,68.0,30.00,West,269,4.0,8.0,86,-99.99,,,-99.99,,2013-07-28 13:32:00,
2013-07-28 09:43:00,73.0,69.0,30.01,WNW,285,4.0,10.0,86,-99.99,,,-99.99,,2013-07-28 13:43:00,
2013-07-28 10:02:00,73.0,69.0,-100.00,WSW,242,4.0,9.0,86,-99.99,,,-99.99,,2013-07-28 14:02:00,
2013-07-28 10:33:00,74.0,69.0,-100.00,NNW,335,3.0,7.0,83,-99.99,,,-99.99,,2013-07-28 14:33:00,
2013-07-28 10:43:00,76.0,70.0,30.00,NW,313,3.0,8.0,80,-99.99,,,-99.99,,2013-07-28 14:43:00,
2013-07-28 11:03:00,77.0,69.0,-100.00,SW,236,2.0,6.0,77,-99.99,,,-99.99,,2013-07-28 15:03:00,
2013-07-28 11:33:00,78.0,69.0,-100.00,WSW,240,3.0,7.0,74,-99.99,,,-99.99,,2013-07-28 15:33:00,
2013-07-28 11:43:00,77.0,69.0,30.01,West,260,3.0,7.0,75,-99.99,,,-99.99,,2013-07-28 15:43:00,
2013-07-28 12:03:00,77.0,69.0,-100.00,SSW,206,3.0,8.0,76,-99.99,,,-99.99,,2013-07-28 16:03:00,
2013-07-28 12:33:00,79.0,68.0,30.01,WSW,248,5.0,10.0,69,-99.99,,,-99.99,,2013-07-28 16:33:00,
2013-07-28 12:43:00,80.0,69.0,30.01,SSW,194,3.0,6.0,70,-99.99,,,-99.99,,2013-07-28 16:43:00,
2013-07-28 13:02:00,80.0,68.0,30.01,WSW,240,3.0,7.0,68,-99.99,,,-99.99,,2013-07-28 17:02:00,
2013-07-28 13:23:00,81.0,68.0,30.01,NW,318,2.0,4.0,64,-99.99,,,-99.99,,2013-07-28 17:23:00,
2013-07-28 13:33:00,81.0,68.0,30.01,NW,318,2.0,4.0,64,-99.99,,,-99.99,,2013-07-28 17:33:00,
2013-07-28 13:43:00,81.0,68.0,30.01,WSW,252,3.0,6.0,63,-99.99,,,-99.99,,2013-07-28 17:43:00,
2013-07-28 13:53:00,81.0,68.0,30.01,WSW,252,3.0,6.0,63,-99.99,,,-99.99,,2013-07-28 17:53:00,
2013-07-28 14:03:00,82.0,69.0,-100.00,SSW,209,3.0,7.0,64,-99.99,,,-99.99,,2013-07-28 18:03:00,
2013-07-28 14:33:00,82.0,66.0,-100.00,WSW,249,3.0,9.0,58,-99.99,,,-99.99,,2013-07-28 18:33:00,
2013-07-28 14:43:00,83.0,66.0,30.00,SSW,200,4.0,11.0,54,-99.99,,,-99.99,,2013-07-28 18:43:00,
2013-07-28 14:52:00,83.0,66.0,30.00,SSW,200,4.0,11.0,54,-99.99,,,-99.99,,2013-07-28 18:52:00,
2013-07-28 15:43:00,85.0,68.0,29.99,SW,219,4.0,9.0,57,-99.99,,,-99.99,,2013-07-28 19:43:00,
2013-07-28 15:52:00,85.0,68.0,29.99,SW,219,4.0,9.0,57,-99.99,,,-99.99,,2013-07-28 19:52:00,
2013-07-28 16:03:00,84.0,66.0,-100.00,SW,234,3.0,8.0,54,-99.99,,,-99.99,,2013-07-28 20:03:00,
2013-07-28 16:43:00,84.0,66.0,29.97,WNW,291,4.0,8.0,53,-99.99,,,-99.99,,2013-07-28 20:43:00,
2013-07-28 16:52:00,84.0,66.0,29.97,WNW,291,4.0,8.0,53,-99.99,,,-99.99,,2013-07-28 20:52:00,
2013-07-28 17:03:00,84.0,67.0,-100.00,SW,228,3.0,7.0,55,-99.99,,,-99.99,,2013-07-28 21:03:00,
2013-07-28 17:33:00,84.0,65.0,-100.00,South,190,3.0,6.0,53,-99.99,,,-99.99,,2013-07-28 21:33:00,
2013-07-28 17:44:00,84.0,67.0,29.97,SW,222,3.0,6.0,56,-99.99,,,-99.99,,2013-07-28 21:44:00,
2013-07-28 18:02:00,84.0,66.0,-100.00,SW,219,5.0,9.0,56,-99.99,,,-99.99,,2013-07-28 22:02:00,
2013-07-28 18:32:00,84.0,67.0,-100.00,SSW,204,4.0,8.0,57,-99.99,,,-99.99,,2013-07-28 22:32:00,
2013-07-28 18:43:00,83.0,69.0,29.97,SSW,209,3.0,5.0,61,-99.99,,,-99.99,,2013-07-28 22:43:00,
2013-07-28 19:03:00,83.0,68.0,-100.00,SSW,206,2.0,4.0,61,-99.99,,,-99.99,,2013-07-28 23:03:00,
2013-07-28 19:22:00,82.0,70.0,29.98,South,188,1.0,3.0,67,-99.99,,,-99.99,,2013-07-28 23:22:00,
2013-07-28 19:33:00,82.0,70.0,29.98,South,188,1.0,3.0,67,-99.99,,,-99.99,,2013-07-28 23:33:00,
2013-07-28 19:43:00,81.0,71.0,29.99,SW,221,2.0,7.0,70,-99.99,,,-99.99,,2013-07-28 23:43:00,
2013-07-28 20:03:00,81.0,72.0,30.00,SSW,198,1.0,2.0,72,-99.99,,,-99.99,,2013-07-29 00:03:00,
2013-07-28 20:52:00,76.0,72.0,30.01,SW,216,1.0,2.0,87,-99.99,,,-99.99,,2013-07-29 00:52:00,
2013-07-28 21:02:00,75.0,72.0,30.01,ESE,103,1.0,2.0,88,-99.99,,,-99.99,,2013-07-29 01:02:00,
2013-07-28 22:06:00,72.0,70.0,30.02,NNE,23,1.0,2.0,92,-99.99,,,-99.99,,2013-07-29 02:06:00,
2013-07-28 22:48:00,72.0,68.0,30.03,WSW,256,4.0,9.0,87,-99.99,,,-99.99,,2013-07-29 02:48:00,
2013-07-28 23:05:00,71.0,68.0,-100.00,West,278,3.0,4.0,88,-99.99,,,-99.99,,2013-07-29 03:05:00,
2013-07-28 23:37:00,71.0,67.0,-100.00,SE,137,4.0,7.0,89,-99.99,,,-99.99,,2013-07-29 03:37:00,
2013-07-28 23:48:00,71.0,68.0,30.05,SW,234,4.0,8.0,89,-99.99,,,-99.99,,2013-07-29 03:48:00,